Terminal Aerodrome Forecast
Issued by NWS

Home | Current Version | Previous Version | Graphics & Text | Print | Product List | Glossary On
Versions: 1 2 3 4 5 6 7 8 9 10 11 12 13 14 15 16 17 18
000
FTUS43 KTOP 181338 AAA
TAFMHK
TAF AMD
KMHK 181338Z 1814/1912 16007KT 5SM -TSRA BKN010 OVC025CB
     FM181600 17008KT 5SM -SHRA VCTS OVC015CB
     FM181800 17009KT P6SM VCTS BKN035CB
     FM182000 18006KT P6SM SCT025 BKN150=

USA.gov is the U.S. government's official web portal to all federal, state and local government web resources and services.